Time;durP1;ratioP1;P1;durP2;ratioP2;P2;SDS_P1;SDS_P2;PMS_P1;PMS_P2;Temp;Humidity;BMP_temperature;BMP_pressure;BME280_temperature;BME280_humidity;BME280_pressure;Samples;Min_cycle;Max_cycle;Signal;HPM_P1;HPM_P2
2022/09/24 00:01:32;;;;;;;38.35;28.80;;;18.20;99.90;;;;;;4591292;19;19911;-35
2022/09/24 00:03:03;;;;;;;38.72;31.13;;;18.20;99.90;;;;;;4591918;19;20010;-35
2022/09/24 00:04:34;;;;;;;35.92;29.30;;;18.20;99.90;;;;;;4591414;19;20014;-35
2022/09/24 00:06:06;;;;;;;37.63;30.35;;;18.20;99.90;;;;;;4590399;19;20013;-35
2022/09/24 00:07:37;;;;;;;35.30;29.02;;;18.20;99.90;;;;;;4590876;19;20474;-35
2022/09/24 00:09:09;;;;;;;36.45;29.27;;;18.20;99.90;;;;;;4589981;19;20014;-35
2022/09/24 00:10:40;;;;;;;;;;;18.10;99.90;;;;;;4591067;19;20025;-35
2022/09/24 00:12:12;;;;;;;37.25;28.15;;;18.10;99.90;;;;;;4591003;19;19918;-35
2022/09/24 00:13:43;;;;;;;36.92;27.92;;;18.10;99.90;;;;;;4590618;19;20490;-35
2022/09/24 00:15:14;;;;;;;37.55;29.80;;;18.10;99.90;;;;;;4590408;19;20031;-35
2022/09/24 00:16:45;;;;;;;36.45;27.95;;;18.10;99.90;;;;;;4590661;19;20014;-35
2022/09/24 00:18:17;;;;;;;37.17;28.13;;;18.10;99.90;;;;;;4590633;19;20014;-35
2022/09/24 00:19:48;;;;;;;32.28;25.35;;;18.10;99.90;;;;;;4590340;19;20333;-35
2022/09/24 00:21:24;;;;;;;31.40;23.80;;;18.10;99.90;;;;;;4590817;19;20021;-35
2022/09/24 00:22:55;;;;;;;31.45;23.85;;;18.10;99.90;;;;;;4590075;19;20086;-35
2022/09/24 00:28:07;;;;;;;32.30;24.23;;;18.10;99.90;;;;;;4590470;19;20043;-35
2022/09/24 00:29:38;;;;;;;34.03;25.27;;;18.10;99.90;;;;;;4590729;19;20032;-35
2022/09/24 00:31:09;;;;;;;33.95;24.73;;;18.10;99.90;;;;;;4589738;19;20015;-35
2022/09/24 00:32:40;;;;;;;30.67;23.15;;;18.10;99.90;;;;;;4590198;19;20039;-35
2022/09/24 00:34:12;;;;;;;30.55;24.27;;;18.10;99.90;;;;;;4590274;19;20025;-35
2022/09/24 00:35:43;;;;;;;31.67;24.48;;;18.10;99.90;;;;;;4590247;19;20011;-35
2022/09/24 00:37:14;;;;;;;34.85;27.50;;;18.10;99.90;;;;;;4589355;19;20014;-35
2022/09/24 00:38:48;;;;;;;32.95;26.30;;;18.10;99.90;;;;;;4590353;19;20006;-35
2022/09/24 00:40:20;;;;;;;31.85;25.88;;;18.10;99.90;;;;;;4589590;19;20325;-35
2022/09/24 00:41:51;;;;;;;31.58;25.48;;;18.10;99.90;;;;;;4590866;19;20010;-35
2022/09/24 00:43:33;;;;;;;30.55;23.55;;;18.10;99.90;;;;;;4590714;19;20014;-35
2022/09/24 00:45:05;;;;;;;27.55;20.95;;;18.10;99.90;;;;;;4589868;19;20014;-35
2022/09/24 00:46:40;;;;;;;27.70;21.73;;;18.10;99.90;;;;;;4589370;19;20010;-35
2022/09/24 00:48:11;;;;;;;26.80;20.55;;;18.10;99.90;;;;;;4589306;19;20467;-35
2022/09/24 00:49:42;;;;;;;26.40;20.65;;;18.10;99.90;;;;;;4589713;19;20025;-35
2022/09/24 00:51:16;;;;;;;23.95;18.75;;;18.10;99.90;;;;;;4590592;19;20014;-35
2022/09/24 00:52:51;;;;;;;24.42;18.90;;;18.10;99.90;;;;;;4588730;19;20095;-35
2022/09/24 00:54:25;;;;;;;22.80;17.27;;;18.10;99.90;;;;;;4590423;19;20011;-35
2022/09/24 00:55:56;;;;;;;21.83;16.73;;;18.10;99.90;;;;;;4589359;19;20021;-35
2022/09/24 00:57:27;;;;;;;20.95;16.00;;;18.10;99.90;;;;;;4590407;19;20013;-35
2022/09/24 00:59:00;;;;;;;22.67;17.50;;;18.10;99.90;;;;;;4589636;19;20045;-35
2022/09/24 01:00:31;;;;;;;23.50;17.63;;;18.10;99.90;;;;;;4588369;19;20014;-35
2022/09/24 01:02:03;;;;;;;23.75;17.67;;;18.10;99.90;;;;;;4589816;19;20006;-35
2022/09/24 01:03:41;;;;;;;22.73;17.33;;;18.10;99.90;;;;;;4589186;19;20536;-35
2022/09/24 01:05:13;;;;;;;22.52;17.38;;;18.10;99.90;;;;;;4589322;19;20036;-35
2022/09/24 01:06:44;;;;;;;25.17;18.02;;;18.00;99.90;;;;;;4590125;19;20010;-35
2022/09/24 01:08:16;;;;;;;23.83;17.38;;;18.10;99.90;;;;;;4589795;19;20018;-35
2022/09/24 01:09:47;;;;;;;23.20;17.63;;;18.10;99.90;;;;;;4590224;19;20002;-35
2022/09/24 01:11:58;;;;;;;21.88;17.63;;;18.00;99.90;;;;;;4590004;19;20019;-35
2022/09/24 01:13:32;;;;;;;22.45;17.45;;;18.10;99.90;;;;;;4587201;19;20021;-35
2022/09/24 01:15:08;;;;;;;25.33;17.95;;;18.10;99.90;;;;;;4588015;19;20011;-35
2022/09/24 01:16:40;;;;;;;24.58;18.17;;;18.10;99.90;;;;;;4587985;19;20006;-35
2022/09/24 01:18:35;;;;;;;22.33;17.02;;;18.10;99.90;;;;;;4588255;19;19998;-35
2022/09/24 01:20:06;;;;;;;22.58;15.60;;;18.00;99.90;;;;;;4587661;19;20050;-35
2022/09/24 01:21:38;;;;;;;21.20;16.05;;;18.10;99.90;;;;;;4587803;19;20011;-35
2022/09/24 01:23:16;;;;;;;22.92;17.65;;;18.00;99.90;;;;;;4588182;19;20007;-35
2022/09/24 01:24:56;;;;;;;24.67;18.35;;;18.00;99.90;;;;;;4588146;19;20010;-35
2022/09/24 01:26:46;;;;;;;27.58;20.20;;;18.00;99.90;;;;;;4587784;19;20018;-35
2022/09/24 01:28:59;;;;;;;37.40;26.40;;;18.10;99.90;;;;;;4587683;19;20463;-35
2022/09/24 01:30:33;;;;;;;28.88;20.20;;;18.00;99.90;;;;;;4587485;19;20427;-35
2022/09/24 01:32:17;;;;;;;23.15;15.98;;;18.10;99.90;;;;;;4587535;19;20014;-35
2022/09/24 01:33:50;;;;;;;23.48;16.17;;;18.00;99.90;;;;;;4586637;19;20029;-35
2022/09/24 01:35:31;;;;;;;19.75;15.00;;;18.00;99.90;;;;;;4588043;19;20006;-35
2022/09/24 01:37:02;;;;;;;19.90;14.48;;;18.10;99.90;;;;;;4587826;19;20014;-35
2022/09/24 01:38:37;;;;;;;16.90;13.85;;;18.10;99.90;;;;;;4587198;19;20014;-35
2022/09/24 01:40:09;;;;;;;21.63;15.38;;;18.00;99.90;;;;;;4586361;19;20480;-35
2022/09/24 01:41:41;;;;;;;24.50;17.23;;;18.00;99.90;;;;;;4587688;19;20014;-35
2022/09/24 01:43:13;;;;;;;22.30;15.57;;;18.00;99.90;;;;;;4587393;19;20357;-35
2022/09/24 01:44:44;;;;;;;17.83;13.50;;;18.10;99.90;;;;;;4587148;19;20031;-35
2022/09/24 01:46:18;;;;;;;17.98;13.20;;;18.10;99.90;;;;;;4587549;19;20115;-35
2022/09/24 01:47:49;;;;;;;19.10;12.70;;;18.10;99.90;;;;;;4587603;19;20335;-35
2022/09/24 01:49:20;;;;;;;22.15;16.58;;;18.10;99.90;;;;;;4587320;19;20021;-35
2022/09/24 01:51:01;;;;;;;23.23;14.68;;;18.10;99.90;;;;;;4587024;19;20381;-35
2022/09/24 01:52:39;;;;;;;22.15;15.55;;;18.10;99.90;;;;;;4587224;19;20194;-35
2022/09/24 01:54:25;;;;;;;20.58;14.55;;;18.10;99.90;;;;;;4587471;19;20017;-35
2022/09/24 01:55:59;;;;;;;18.67;12.05;;;18.10;99.90;;;;;;4587432;19;20018;-35
2022/09/24 01:57:33;;;;;;;18.33;12.88;;;18.10;99.90;;;;;;4587992;19;20015;-35
2022/09/24 01:59:31;;;;;;;20.65;13.27;;;18.10;99.90;;;;;;4588127;19;20349;-35
2022/09/24 02:01:06;;;;;;;19.58;12.95;;;18.10;99.90;;;;;;4587089;19;20014;-35
2022/09/24 02:02:51;;;;;;;19.25;12.82;;;18.10;99.90;;;;;;4587254;19;20010;-35
2022/09/24 02:04:24;;;;;;;15.73;11.75;;;18.10;99.90;;;;;;4587546;19;20011;-35
2022/09/24 02:06:07;;;;;;;16.13;11.70;;;18.10;99.90;;;;;;4586868;19;20028;-35
2022/09/24 02:07:41;;;;;;;16.85;12.00;;;18.10;99.90;;;;;;4586863;19;20494;-35
2022/09/24 02:09:33;;;;;;;18.58;12.73;;;18.10;99.90;;;;;;4587011;19;20468;-35
2022/09/24 02:11:10;;;;;;;16.38;12.43;;;18.10;99.90;;;;;;4587309;19;20522;-35
2022/09/24 02:12:41;;;;;;;16.23;11.70;;;18.10;99.90;;;;;;4591057;19;20010;-35
2022/09/24 02:14:13;;;;;;;;;;;18.10;99.90;;;;;;4592260;19;20077;-35
2022/09/24 02:15:45;;;;;;;16.40;11.67;;;18.10;99.90;;;;;;4591382;19;20390;-35
2022/09/24 02:17:17;;;;;;;16.00;11.65;;;18.10;99.90;;;;;;4591639;19;20440;-35
2022/09/24 02:18:50;;;;;;;15.68;11.27;;;18.10;99.90;;;;;;4591387;19;20002;-35
2022/09/24 02:20:22;;;;;;;15.40;11.23;;;18.10;99.90;;;;;;4591345;19;20026;-35
2022/09/24 02:21:53;;;;;;;16.17;11.13;;;18.10;99.90;;;;;;4591260;19;20017;-35
2022/09/24 02:23:24;;;;;;;17.02;11.73;;;18.10;99.90;;;;;;4591882;19;20070;-35
2022/09/24 02:25:00;;;;;;;14.65;11.25;;;18.10;99.90;;;;;;4591570;19;20018;-35
2022/09/24 02:26:31;;;;;;;21.58;15.27;;;18.10;99.90;;;;;;4591107;19;20398;-35
2022/09/24 02:28:02;;;;;;;28.23;18.00;;;18.10;99.90;;;;;;4591433;19;20006;-35
2022/09/24 02:29:34;;;;;;;23.27;15.35;;;18.10;99.90;;;;;;4591797;19;20025;-35
2022/09/24 02:31:26;;;;;;;18.25;13.15;;;18.10;99.90;;;;;;4591527;19;20006;-35
2022/09/24 02:32:57;;;;;;;14.15;10.20;;;18.10;99.90;;;;;;4590609;19;20014;-35
2022/09/24 02:34:34;;;;;;;13.93;9.45;;;18.10;99.90;;;;;;4590857;19;20348;-35
2022/09/24 02:36:06;;;;;;;13.40;9.45;;;18.10;99.90;;;;;;4590928;19;20014;-35
2022/09/24 02:37:38;;;;;;;11.55;8.98;;;18.10;99.90;;;;;;4591306;19;20021;-35
2022/09/24 02:39:09;;;;;;;12.05;8.70;;;18.10;99.90;;;;;;4589846;19;20014;-35
2022/09/24 02:40:43;;;;;;;13.30;9.73;;;18.10;99.90;;;;;;4590831;19;20041;-35
2022/09/24 02:42:15;;;;;;;14.23;9.80;;;18.10;99.90;;;;;;4591034;19;20071;-35
2022/09/24 02:43:46;;;;;;;13.98;9.13;;;18.10;99.90;;;;;;4591017;19;20037;-35
2022/09/24 02:45:17;;;;;;;12.73;9.20;;;18.10;99.90;;;;;;4590575;19;20021;-35
2022/09/24 02:46:49;;;;;;;13.05;9.38;;;18.10;99.90;;;;;;4591024;19;20010;-35
2022/09/24 02:48:20;;;;;;;11.82;9.52;;;18.10;99.90;;;;;;4591052;19;20007;-35
2022/09/24 02:49:51;;;;;;;15.48;9.48;;;18.10;99.90;;;;;;4590462;19;20018;-35
2022/09/24 02:51:23;;;;;;;15.32;10.15;;;18.10;99.90;;;;;;4590808;19;20018;-35
2022/09/24 02:52:54;;;;;;;13.55;10.07;;;18.10;99.90;;;;;;4590405;19;20026;-35
2022/09/24 02:54:25;;;;;;;14.70;10.27;;;18.10;99.90;;;;;;4590692;19;20364;-35
2022/09/24 02:55:57;;;;;;;14.82;10.15;;;18.10;99.90;;;;;;4590862;19;20010;-35
2022/09/24 02:57:28;;;;;;;13.10;9.63;;;18.10;99.90;;;;;;4589242;19;20020;-35
2022/09/24 02:59:03;;;;;;;12.32;9.45;;;18.10;99.90;;;;;;4591497;19;20014;-35
2022/09/24 03:00:35;;;;;;;12.00;8.45;;;18.10;99.90;;;;;;4591485;19;20119;-35
2022/09/24 03:02:06;;;;;;;13.20;8.68;;;18.10;99.90;;;;;;4590321;19;20021;-35
2022/09/24 03:03:37;;;;;;;12.20;8.80;;;18.00;99.90;;;;;;4589995;19;20015;-35
2022/09/24 03:05:09;;;;;;;11.07;7.20;;;18.10;99.90;;;;;;4589940;19;20020;-35
2022/09/24 03:06:41;;;;;;;11.30;7.75;;;18.00;99.90;;;;;;4589392;19;20118;-35
2022/09/24 03:08:12;;;;;;;;;;;18.10;99.90;;;;;;4590720;19;20069;-35
2022/09/24 03:09:43;;;;;;;10.18;7.45;;;18.10;99.90;;;;;;4590449;19;19918;-35
2022/09/24 03:11:15;;;;;;;10.90;7.60;;;18.10;99.90;;;;;;4590940;19;20014;-35
2022/09/24 03:12:46;;;;;;;11.80;6.85;;;18.10;99.90;;;;;;4591202;19;20018;-35
2022/09/24 03:14:17;;;;;;;9.00;6.95;;;18.00;99.90;;;;;;4592226;19;20011;-35
2022/09/24 03:15:48;;;;;;;9.38;7.55;;;18.10;99.90;;;;;;4592428;19;20029;-35
2022/09/24 03:17:19;;;;;;;9.85;7.03;;;18.10;99.90;;;;;;4592520;19;20048;-35
2022/09/24 03:18:50;;;;;;;10.52;7.13;;;18.00;99.90;;;;;;4591598;19;20025;-35
2022/09/24 03:20:23;;;;;;;9.27;7.15;;;18.00;99.90;;;;;;4591453;19;20037;-35
2022/09/24 03:21:54;;;;;;;10.38;7.40;;;18.00;99.90;;;;;;4590855;19;20455;-35
2022/09/24 03:23:25;;;;;;;9.43;6.97;;;18.10;99.90;;;;;;4590353;19;20039;-35
2022/09/24 03:24:57;;;;;;;10.52;7.13;;;18.00;99.90;;;;;;4589144;19;20007;-35
2022/09/24 03:26:28;;;;;;;11.00;7.97;;;18.10;99.90;;;;;;4589478;19;20025;-35
2022/09/24 03:27:59;;;;;;;10.65;7.60;;;18.10;99.90;;;;;;4591578;19;20101;-35
2022/09/24 03:31:22;;;;;;;12.20;8.38;;;18.00;99.90;;;;;;4592227;19;20031;-35
2022/09/24 03:32:54;;;;;;;11.05;7.55;;;18.00;99.90;;;;;;4591796;19;20473;-35
2022/09/24 03:34:25;;;;;;;9.98;7.38;;;18.00;99.90;;;;;;4592018;19;20006;-35
2022/09/24 03:35:59;;;;;;;9.40;6.95;;;18.00;99.90;;;;;;4592636;19;20017;-35
2022/09/24 03:37:32;;;;;;;9.27;7.10;;;18.10;99.90;;;;;;4591776;19;20007;-35
2022/09/24 03:39:03;;;;;;;13.60;7.57;;;18.00;99.90;;;;;;4590862;19;20018;-35
2022/09/24 03:40:34;;;;;;;9.40;7.40;;;18.00;99.90;;;;;;4591771;19;20026;-35
2022/09/24 03:42:05;;;;;;;10.02;7.32;;;18.00;99.90;;;;;;4592250;19;20010;-35
2022/09/24 03:43:37;;;;;;;9.05;6.72;;;18.00;99.90;;;;;;4591805;19;20010;-35
2022/09/24 03:45:08;;;;;;;9.68;7.68;;;18.00;99.90;;;;;;4591033;19;20010;-35
2022/09/24 03:46:39;;;;;;;12.35;7.88;;;18.00;99.90;;;;;;4591530;19;19999;-36
2022/09/24 03:48:10;;;;;;;9.45;6.95;;;18.00;99.90;;;;;;4591224;19;20019;-35
2022/09/24 03:49:42;;;;;;;10.77;7.15;;;18.00;99.90;;;;;;4591526;19;20025;-36
2022/09/24 03:51:14;;;;;;;10.35;7.60;;;18.00;99.90;;;;;;4592179;19;20010;-35
2022/09/24 03:52:45;;;;;;;9.95;7.40;;;18.00;99.90;;;;;;4590415;19;20018;-35
2022/09/24 03:54:16;;;;;;;10.25;7.60;;;18.00;99.90;;;;;;4591163;19;20018;-35
2022/09/24 03:55:54;;;;;;;10.88;7.55;;;18.00;99.90;;;;;;4591589;19;20415;-35
2022/09/24 03:57:26;;;;;;;10.10;7.78;;;18.00;99.90;;;;;;4591887;19;20010;-35
2022/09/24 03:58:57;;;;;;;11.05;8.23;;;18.00;99.90;;;;;;4591749;19;20025;-35
2022/09/24 04:00:28;;;;;;;10.48;7.88;;;18.00;99.90;;;;;;4591330;19;20355;-35
2022/09/24 04:01:59;;;;;;;10.38;7.43;;;18.00;99.90;;;;;;4591617;19;20018;-35
2022/09/24 04:03:30;;;;;;;9.77;7.65;;;18.00;99.90;;;;;;4591596;19;20082;-35
2022/09/24 04:05:01;;;;;;;12.65;8.57;;;18.00;99.90;;;;;;4591673;19;20471;-35
2022/09/24 04:06:33;;;;;;;11.15;8.18;;;18.00;99.90;;;;;;4590182;19;20021;-35
2022/09/24 04:08:05;;;;;;;10.68;7.72;;;18.00;99.90;;;;;;4591087;19;20018;-35
2022/09/24 04:09:36;;;;;;;11.00;7.90;;;18.00;99.90;;;;;;4591794;19;20024;-35
2022/09/24 04:11:07;;;;;;;13.45;8.10;;;18.00;99.90;;;;;;4591487;19;19994;-35
2022/09/24 04:12:38;;;;;;;10.60;7.38;;;18.00;99.90;;;;;;4590238;19;20065;-35
2022/09/24 04:14:09;;;;;;;11.18;7.72;;;18.00;99.90;;;;;;4590152;19;20493;-35
2022/09/24 04:15:40;;;;;;;9.02;7.70;;;18.00;99.90;;;;;;4591766;19;20013;-35
2022/09/24 04:17:13;;;;;;;11.75;8.23;;;18.00;99.90;;;;;;4591426;19;20011;-35
2022/09/24 04:18:46;;;;;;;10.70;8.52;;;18.00;99.90;;;;;;4591412;19;20062;-35
2022/09/24 04:20:21;;;;;;;11.88;8.45;;;18.00;99.90;;;;;;4591305;19;20015;-35
2022/09/24 04:21:52;;;;;;;10.88;7.72;;;18.00;99.90;;;;;;4591725;19;20028;-35
2022/09/24 04:23:23;;;;;;;11.38;8.70;;;18.00;99.90;;;;;;4591013;19;20007;-35
2022/09/24 04:24:56;;;;;;;9.98;7.65;;;18.00;99.90;;;;;;4591374;19;20015;-35
2022/09/24 04:26:27;;;;;;;12.80;8.57;;;18.00;99.90;;;;;;4591060;19;20358;-35
2022/09/24 04:28:03;;;;;;;13.40;9.48;;;18.00;99.90;;;;;;4591741;19;20003;-35
2022/09/24 04:29:34;;;;;;;11.80;8.80;;;18.00;99.90;;;;;;4589395;19;20098;-35
2022/09/24 04:31:05;;;;;;;13.00;8.73;;;18.00;99.90;;;;;;4590476;19;20018;-35
2022/09/24 04:32:37;;;;;;;13.13;8.90;;;18.00;99.90;;;;;;4591349;19;20017;-35
2022/09/24 04:34:08;;;;;;;13.73;8.15;;;18.00;99.90;;;;;;4588577;19;20010;-36
2022/09/24 04:35:39;;;;;;;11.48;8.23;;;18.00;99.90;;;;;;4589220;19;20070;-35
2022/09/24 04:37:11;;;;;;;12.70;8.25;;;18.00;99.90;;;;;;4590626;19;20010;-35
2022/09/24 04:38:42;;;;;;;10.90;8.38;;;18.00;99.90;;;;;;4590724;19;20418;-35
2022/09/24 04:40:14;;;;;;;11.45;8.73;;;18.00;99.90;;;;;;4590278;19;20025;-35
2022/09/24 04:41:46;;;;;;;12.05;8.63;;;18.00;99.90;;;;;;4590654;19;20066;-35
2022/09/24 04:43:17;;;;;;;16.30;11.88;;;18.00;99.90;;;;;;4591283;19;20017;-35
2022/09/24 04:44:49;;;;;;;20.25;14.40;;;18.00;99.90;;;;;;4590594;19;20006;-35
2022/09/24 04:46:20;;;;;;;17.23;13.25;;;18.00;99.90;;;;;;4590582;19;20325;-35
2022/09/24 04:47:56;;;;;;;15.77;10.85;;;18.00;99.90;;;;;;4590243;19;20018;-35
2022/09/24 04:49:28;;;;;;;12.95;9.50;;;18.00;99.90;;;;;;4590111;19;20018;-35
2022/09/24 04:51:01;;;;;;;12.20;10.02;;;18.00;99.90;;;;;;4590595;19;20029;-35
2022/09/24 04:52:32;;;;;;;12.60;9.57;;;18.00;99.90;;;;;;4590198;19;20038;-35
2022/09/24 04:54:08;;;;;;;12.10;9.65;;;18.00;99.90;;;;;;4589383;19;20022;-35
2022/09/24 04:55:40;;;;;;;12.10;10.70;;;16.60;99.90;;;;;;4590636;19;20494;-35
2022/09/24 04:57:14;;;;;;;12.70;10.70;;;15.50;99.90;;;;;;4591571;19;20017;-35
2022/09/24 04:58:49;;;;;;;14.23;10.63;;;15.00;99.90;;;;;;4590506;19;20017;-35
2022/09/24 05:00:20;;;;;;;14.00;10.47;;;14.70;99.90;;;;;;4590541;19;20031;-35
2022/09/24 05:01:53;;;;;;;12.57;10.63;;;14.60;99.90;;;;;;4589182;19;20019;-35
2022/09/24 05:03:24;;;;;;;13.33;10.07;;;14.50;99.90;;;;;;4590674;19;20014;-35
2022/09/24 05:04:55;;;;;;;13.70;10.70;;;14.50;99.90;;;;;;4590256;19;20010;-35
2022/09/24 05:06:26;;;;;;;13.57;10.40;;;14.50;99.90;;;;;;4590037;19;20007;-35
2022/09/24 05:07:57;;;;;;;13.20;10.60;;;14.50;99.90;;;;;;4590898;19;20335;-35
2022/09/24 05:09:32;;;;;;;;;;;14.40;99.90;;;;;;4590054;19;20027;-35
2022/09/24 05:11:03;;;;;;;12.70;10.63;;;14.40;99.90;;;;;;4588495;19;20846;-34
2022/09/24 05:12:35;;;;;;;12.35;9.88;;;14.40;99.90;;;;;;4590475;19;20014;-35
2022/09/24 05:14:07;;;;;;;;;;;14.40;99.90;;;;;;4589779;19;20481;-35
2022/09/24 05:15:38;;;;;;;14.43;11.53;;;14.40;99.90;;;;;;4589774;19;19923;-35
2022/09/24 05:17:09;;;;;;;14.82;11.30;;;14.40;99.90;;;;;;4589271;19;20018;-35
2022/09/24 05:18:40;;;;;;;12.30;10.60;;;14.40;99.90;;;;;;4589043;19;20024;-35
2022/09/24 05:20:11;;;;;;;15.65;12.25;;;14.40;99.90;;;;;;4588979;19;20010;-35
2022/09/24 05:21:43;;;;;;;16.13;11.95;;;14.40;99.90;;;;;;4585643;19;20029;-35
2022/09/24 05:23:14;;;;;;;15.93;11.80;;;14.40;99.90;;;;;;4587586;19;20007;-35
2022/09/24 05:24:45;;;;;;;19.33;12.32;;;14.40;99.90;;;;;;4590475;19;20018;-35
2022/09/24 05:28:06;;;;;;;13.47;11.67;;;14.40;99.90;;;;;;4590874;19;20495;-35
2022/09/24 05:29:42;;;;;;;13.82;11.00;;;14.30;99.90;;;;;;4590291;19;20033;-35
2022/09/24 05:31:13;;;;;;;15.50;11.63;;;14.30;99.90;;;;;;4588999;19;20494;-36
2022/09/24 05:32:45;;;;;;;14.35;10.98;;;14.30;99.90;;;;;;4589653;19;20022;-36
2022/09/24 05:34:16;;;;;;;14.00;11.37;;;14.30;99.90;;;;;;4586732;19;20014;-35
2022/09/24 05:35:53;;;;;;;13.02;11.02;;;14.30;99.90;;;;;;4588384;19;20007;-35
2022/09/24 05:37:24;;;;;;;14.23;10.63;;;14.30;99.90;;;;;;4588567;19;20480;-35
2022/09/24 05:38:55;;;;;;;13.18;10.07;;;14.30;99.90;;;;;;4587003;19;20018;-34
2022/09/24 05:42:16;;;;;;;12.93;10.80;;;14.30;99.90;;;;;;4588031;19;20006;-36
2022/09/24 05:43:48;;;;;;;13.45;10.70;;;14.30;99.90;;;;;;4587932;19;20028;-36
2022/09/24 05:45:19;;;;;;;13.40;10.45;;;14.30;99.90;;;;;;4588368;19;20340;-36
2022/09/24 05:46:50;;;;;;;14.48;11.15;;;14.30;99.90;;;;;;4594998;19;20094;-36
2022/09/24 05:48:21;;;;;;;15.90;11.38;;;14.30;99.90;;;;;;4593383;19;20094;-36
2022/09/24 05:49:52;;;;;;;14.93;11.43;;;14.30;99.90;;;;;;4593978;19;20478;-36
2022/09/24 05:51:23;;;;;;;13.57;11.38;;;14.30;99.90;;;;;;4593660;19;20003;-36
2022/09/24 05:52:55;;;;;;;15.57;11.90;;;14.30;99.90;;;;;;4592727;19;20077;-36
2022/09/24 05:54:26;;;;;;;15.00;11.50;;;14.30;99.90;;;;;;4593988;19;20017;-35
2022/09/24 05:55:57;;;;;;;13.80;11.40;;;14.30;99.90;;;;;;4593919;19;20006;-36
2022/09/24 05:57:28;;;;;;;16.33;12.55;;;14.30;99.90;;;;;;4594285;19;20015;-36
2022/09/24 05:59:00;;;;;;;15.00;11.40;;;14.30;99.90;;;;;;4592938;19;20010;-35
2022/09/24 06:00:31;;;;;;;13.75;11.18;;;14.30;99.90;;;;;;4594753;19;20011;-35
2022/09/24 06:02:04;;;;;;;13.47;11.60;;;14.30;99.90;;;;;;4594439;19;20459;-35
2022/09/24 06:03:36;;;;;;;14.82;12.30;;;14.30;99.90;;;;;;4594664;19;20007;-35
2022/09/24 06:05:08;;;;;;;13.27;11.05;;;14.30;99.90;;;;;;4593584;19;20014;-35
2022/09/24 06:06:39;;;;;;;15.15;11.98;;;14.30;99.90;;;;;;4594002;19;20018;-35
2022/09/24 06:08:10;;;;;;;16.20;11.88;;;14.30;99.90;;;;;;4591434;19;20021;-35
2022/09/24 06:09:41;;;;;;;15.57;11.38;;;14.30;99.90;;;;;;4591471;19;20031;-36
2022/09/24 06:11:13;;;;;;;14.95;12.73;;;14.30;99.90;;;;;;4591730;19;20022;-35
2022/09/24 06:12:44;;;;;;;13.32;9.95;;;14.30;99.90;;;;;;4591609;19;20011;-36
2022/09/24 06:14:15;;;;;;;13.68;11.05;;;14.30;99.90;;;;;;4590688;19;20483;-35
2022/09/24 06:15:46;;;;;;;13.88;10.40;;;14.30;99.90;;;;;;4590527;19;20022;-35
2022/09/24 06:17:18;;;;;;;12.38;9.85;;;14.30;99.90;;;;;;4593716;19;20092;-36
2022/09/24 06:18:49;;;;;;;12.32;10.02;;;14.30;99.90;;;;;;4594217;19;20018;-35
2022/09/24 06:20:23;;;;;;;11.38;9.73;;;14.30;99.90;;;;;;4592626;19;20025;-35
2022/09/24 06:21:55;;;;;;;11.53;10.10;;;14.30;99.90;;;;;;4592631;19;20409;-35
2022/09/24 06:23:28;;;;;;;13.23;10.33;;;14.30;99.90;;;;;;4590109;19;20043;-35
2022/09/24 06:24:59;;;;;;;11.63;9.37;;;14.30;99.90;;;;;;4590090;19;20002;-35
2022/09/24 06:26:31;;;;;;;15.18;10.10;;;14.30;99.90;;;;;;4589901;19;20098;-35
2022/09/24 06:28:04;;;;;;;12.87;10.30;;;14.30;99.90;;;;;;4589006;19;20014;-36
2022/09/24 06:29:35;;;;;;;10.70;9.17;;;14.30;99.90;;;;;;4588543;19;20403;-36
2022/09/24 06:31:07;;;;;;;13.23;9.07;;;14.30;99.90;;;;;;4589493;19;20014;-35
2022/09/24 06:32:38;;;;;;;10.93;9.57;;;14.30;99.90;;;;;;4591476;19;20003;-35
2022/09/24 06:34:09;;;;;;;13.55;9.93;;;14.30;99.90;;;;;;4589707;19;20017;-35
2022/09/24 06:35:41;;;;;;;11.38;9.05;;;14.30;99.90;;;;;;4590716;19;20010;-36
2022/09/24 06:37:12;;;;;;;11.67;9.67;;;14.30;99.90;;;;;;4591115;19;20022;-35
2022/09/24 06:38:44;;;;;;;12.82;9.50;;;14.40;99.90;;;;;;4589582;19;20006;-35
2022/09/24 06:40:15;;;;;;;11.88;9.93;;;14.40;99.90;;;;;;4588319;19;20019;-35
2022/09/24 06:41:49;;;;;;;11.70;9.63;;;14.40;99.90;;;;;;4589033;19;20522;-36
2022/09/24 06:43:20;;;;;;;12.23;10.10;;;14.40;99.90;;;;;;4589545;19;20058;-36
2022/09/24 06:44:51;;;;;;;13.35;10.18;;;14.40;99.90;;;;;;4588640;19;20006;-36
2022/09/24 06:46:24;;;;;;;13.43;10.73;;;14.40;99.90;;;;;;4591374;19;20070;-35
2022/09/24 06:47:57;;;;;;;13.73;10.53;;;14.40;99.90;;;;;;4591138;19;20024;-35
2022/09/24 06:49:28;;;;;;;12.43;10.73;;;14.40;99.90;;;;;;4592263;19;20127;-35
2022/09/24 06:50:59;;;;;;;12.32;9.98;;;14.40;99.90;;;;;;4590472;19;20010;-35
2022/09/24 06:52:30;;;;;;;12.55;11.02;;;14.40;99.90;;;;;;4590079;19;20022;-35
2022/09/24 06:54:10;;;;;;;13.13;10.70;;;14.40;99.90;;;;;;4585395;19;20492;-35
2022/09/24 06:55:46;;;;;;;13.27;10.85;;;14.50;99.90;;;;;;4590622;19;20006;-35
2022/09/24 06:57:17;;;;;;;14.40;11.17;;;14.50;99.90;;;;;;4590671;19;20031;-35
2022/09/24 06:58:47;;;;;;;13.60;10.50;;;14.50;99.90;;;;;;4591964;19;20025;-36
2022/09/24 07:00:19;;;;;;;12.73;10.25;;;14.50;99.90;;;;;;4593172;19;20014;-35
2022/09/24 07:01:50;;;;;;;11.38;9.65;;;14.50;99.90;;;;;;4593079;19;20010;-36
2022/09/24 07:03:21;;;;;;;13.30;11.18;;;14.50;99.90;;;;;;4592107;19;20046;-35
2022/09/24 07:04:52;;;;;;;12.93;10.95;;;14.50;99.90;;;;;;4591071;19;20018;-36
2022/09/24 07:06:24;;;;;;;14.35;11.15;;;14.50;99.90;;;;;;4593945;19;20529;-35
2022/09/24 07:07:55;;;;;;;15.25;12.43;;;14.50;99.90;;;;;;4591864;19;20606;-36
2022/09/24 07:09:26;;;;;;;18.55;14.75;;;14.60;99.90;;;;;;4592944;19;20007;-35
2022/09/24 07:10:57;;;;;;;15.77;12.73;;;14.60;99.90;;;;;;4592197;19;20014;-34
2022/09/24 07:12:30;;;;;;;15.10;12.03;;;14.60;99.90;;;;;;4592129;19;20019;-34
2022/09/24 07:14:01;;;;;;;12.03;10.20;;;14.60;99.90;;;;;;4589471;19;20007;-35
2022/09/24 07:15:33;;;;;;;;;;;14.70;99.90;;;;;;4593636;19;20274;-35
2022/09/24 07:17:04;;;;;;;18.50;13.37;;;14.70;99.90;;;;;;4591913;19;19926;-35
2022/09/24 07:18:37;;;;;;;;;;;14.70;99.90;;;;;;4591270;19;20029;-34
2022/09/24 07:20:10;;;;;;;16.27;13.47;;;14.70;99.90;;;;;;4588816;19;20002;-35
2022/09/24 07:21:41;;;;;;;18.60;15.27;;;14.70;99.90;;;;;;4589088;19;20458;-34
2022/09/24 07:23:13;;;;;;;17.52;13.90;;;14.70;99.90;;;;;;4590362;19;20030;-35
2022/09/24 07:24:45;;;;;;;14.20;12.07;;;14.80;99.90;;;;;;4590377;19;20454;-35
2022/09/24 07:26:16;;;;;;;14.57;12.10;;;14.80;99.90;;;;;;4588954;19;20404;-35
2022/09/24 07:27:48;;;;;;;12.18;10.57;;;14.80;99.90;;;;;;4590239;19;20003;-35
2022/09/24 07:29:19;;;;;;;12.98;11.45;;;14.80;99.90;;;;;;4589638;19;20356;-35
2022/09/24 07:30:57;;;;;;;13.10;11.65;;;14.80;99.90;;;;;;4589301;19;20023;-35
2022/09/24 07:32:29;;;;;;;13.70;10.60;;;14.80;99.90;;;;;;4588725;19;20567;-35
2022/09/24 07:34:00;;;;;;;;;;;14.80;99.90;;;;;;4590192;19;20034;-36
2022/09/24 07:35:31;;;;;;;13.77;11.73;;;14.80;99.90;;;;;;4590182;19;19930;-35
2022/09/24 07:37:03;;;;;;;13.83;11.50;;;14.80;99.90;;;;;;4588489;19;20499;-35
2022/09/24 07:38:37;;;;;;;14.00;11.18;;;14.80;99.90;;;;;;4589792;19;20127;-35
2022/09/24 07:40:09;;;;;;;14.07;10.57;;;14.80;99.90;;;;;;4587162;19;20014;-35
2022/09/24 07:41:45;;;;;;;12.98;10.63;;;14.80;99.90;;;;;;4589965;19;20480;-36
2022/09/24 07:43:20;;;;;;;11.55;8.63;;;15.10;99.90;;;;;;4588871;19;20031;-35
2022/09/24 07:44:52;;;;;;;13.45;9.15;;;15.60;99.90;;;;;;4588198;19;20017;-35
2022/09/24 07:46:51;;;;;;;13.00;9.55;;;15.90;99.90;;;;;;4589862;19;20444;-35
2022/09/24 07:48:48;;;;;;;12.90;8.80;;;16.30;99.90;;;;;;4589268;19;20464;-35
2022/09/24 07:50:19;;;;;;;10.82;9.18;;;16.50;99.90;;;;;;4589138;19;20010;-35
2022/09/24 07:51:50;;;;;;;10.73;8.35;;;16.70;99.90;;;;;;4591435;19;20483;-35
2022/09/24 07:53:21;;;;;;;13.93;9.25;;;16.70;99.90;;;;;;4589379;19;20027;-35
2022/09/24 07:54:53;;;;;;;12.43;9.00;;;16.80;99.90;;;;;;4591592;19;20051;-35
2022/09/24 07:56:26;;;;;;;;;;;16.90;99.90;;;;;;4591878;19;20018;-35
2022/09/24 07:58:00;;;;;;;11.40;8.30;;;16.90;99.90;;;;;;4591517;19;19919;-35
2022/09/24 07:59:31;;;;;;;11.05;8.50;;;17.00;99.90;;;;;;4591016;19;20029;-35
2022/09/24 08:01:03;;;;;;;12.80;9.23;;;17.10;99.90;;;;;;4591765;19;20712;-36
2022/09/24 08:02:34;;;;;;;;;;;17.10;99.90;;;;;;4592087;19;20078;-35
2022/09/24 08:04:06;;;;;;;13.63;10.98;;;17.20;99.90;;;;;;4588886;19;19932;-36
2022/09/24 08:05:44;;;;;;;14.43;9.75;;;17.20;99.90;;;;;;4590941;19;20344;-35